KGVL/GVL METAR and TAF weather

Enter ICAO airport designator
Station Type Date Time Source
KGVL METAR 2019/02/17 16:03 UTC NOAA

KGVL 171603Z AUTO 08008KT 2SM -RA BR OVC004 06/06 A3001 RMK AO2 RAB1557 P0000 T00610061


Station Type Date Time Source
KGVL Decoded METAR 2019/02/17 16:03 UTC NOAA

GILMER MEMORIAL AIRPORT, GA, United States (KGVL) 34-16N 83-50W 386M
Feb 17, 2019 - 11:03 AM EST / 2019.02.17 1603 UTC
Wind: from the E (080 degrees) at 9 MPH (8 KT):0
Visibility: 2 mile(s):0
Sky conditions: overcast
Weather: light rain; mist
Precipitation last hour: A trace
Temperature: 43.0 F (6.1 C)
Dew Point: 43.0 F (6.1 C)
Relative Humidity: 100%
Pressure (altimeter): 30.01 in. Hg (1016 hPa)
ob: KGVL 171603Z AUTO 08008KT 2SM -RA BR OVC004 06/06 A3001 RMK AO2 RAB1557 P0000 T00610061
cycle: 16

Station Type Date Time Source
KGVL TAF UTC NOAA

Error!


Example: see airport list